createdAt,value
2022-11-29T00:00:30.078Z,96130.59
2022-11-29T00:02:56.622Z,96130.59
2022-11-29T00:05:23.037Z,96121.63
2022-11-29T00:07:49.411Z,96130.22
2022-11-29T00:10:15.824Z,96121.50
2022-11-29T00:12:42.189Z,96120.84
2022-11-29T00:15:08.561Z,96125.00
2022-11-29T00:17:34.899Z,96113.88
2022-11-29T00:20:01.271Z,96120.94
2022-11-29T00:22:27.961Z,96118.94
2022-11-29T00:25:02.144Z,96106.41
2022-11-29T00:27:28.861Z,96101.25
2022-11-29T00:29:55.260Z,96104.00
2022-11-29T00:32:21.732Z,96102.91
2022-11-29T00:34:48.227Z,96103.53
2022-11-29T00:37:14.601Z,96107.81
2022-11-29T00:39:40.983Z,96106.25
2022-11-29T00:42:08.117Z,96102.91
2022-11-29T00:44:34.517Z,96100.81
2022-11-29T00:47:00.853Z,96101.47
2022-11-29T00:49:27.242Z,96103.06
2022-11-29T00:51:53.590Z,96101.97
2022-11-29T00:54:19.913Z,96100.91
2022-11-29T00:56:46.252Z,96102.72
2022-11-29T00:59:12.619Z,96104.81
2022-11-29T01:01:39.035Z,96097.94
2022-11-29T01:04:05.406Z,96100.34
2022-11-29T01:06:31.792Z,96091.06
2022-11-29T01:08:58.171Z,96092.50
2022-11-29T01:11:24.592Z,96095.53
2022-11-29T01:13:50.934Z,96097.19
2022-11-29T01:16:17.286Z,96097.25
2022-11-29T01:18:43.763Z,96100.34
2022-11-29T01:21:10.147Z,96097.94
2022-11-29T01:23:36.491Z,96103.22
2022-11-29T01:26:02.823Z,96103.31
2022-11-29T01:31:13.160Z,96110.47
2022-11-29T01:33:39.583Z,96102.47
2022-11-29T01:36:05.910Z,96106.94
2022-11-29T01:38:32.242Z,96112.00
2022-11-29T01:40:58.622Z,96101.63
2022-11-29T01:43:25.005Z,96098.56
2022-11-29T01:45:51.410Z,96098.94
2022-11-29T01:48:17.813Z,96100.66
2022-11-29T01:50:44.194Z,96100.22
2022-11-29T01:53:10.565Z,96094.41
2022-11-29T01:55:36.979Z,96089.41
2022-11-29T01:58:12.474Z,96087.41
2022-11-29T02:00:38.813Z,96088.91
2022-11-29T02:03:05.134Z,96084.16
2022-11-29T02:05:31.453Z,96087.59
2022-11-29T02:07:57.886Z,96084.06
2022-11-29T02:10:24.269Z,96078.91
2022-11-29T02:12:50.633Z,96079.50
2022-11-29T02:15:17.026Z,96075.44
2022-11-29T02:17:43.362Z,96069.56
2022-11-29T02:20:09.674Z,96076.28
2022-11-29T02:22:36.041Z,96085.03
2022-11-29T02:25:02.416Z,96086.00
2022-11-29T02:27:28.751Z,96082.88
2022-11-29T02:29:55.130Z,96081.91
2022-11-29T02:32:21.475Z,96078.56
2022-11-29T02:34:47.842Z,96089.19
2022-11-29T02:37:14.256Z,96075.38
2022-11-29T02:39:40.587Z,96084.81
2022-11-29T02:42:06.969Z,96083.00
2022-11-29T02:44:33.314Z,96080.25
2022-11-29T02:46:59.721Z,96087.34
2022-11-29T02:49:26.121Z,96086.47
2022-11-29T02:51:52.504Z,96081.78
2022-11-29T02:54:18.846Z,96091.84
2022-11-29T02:56:45.213Z,96090.88
2022-11-29T02:59:11.593Z,96084.25
2022-11-29T03:01:37.963Z,96086.06
2022-11-29T03:04:04.311Z,96084.09
2022-11-29T03:06:30.631Z,96079.63
2022-11-29T03:08:57.024Z,96082.31
2022-11-29T03:11:23.387Z,96083.09
2022-11-29T03:13:49.763Z,96082.44
2022-11-29T03:16:16.147Z,96084.03
2022-11-29T03:18:42.532Z,96084.34
2022-11-29T03:21:08.888Z,96074.13
2022-11-29T03:23:35.258Z,96079.50
2022-11-29T03:26:01.645Z,96080.22
2022-11-29T03:28:28.016Z,96075.09
2022-11-29T03:30:54.481Z,96085.00
2022-11-29T03:33:20.840Z,96076.78
2022-11-29T03:35:47.162Z,96081.13
2022-11-29T03:38:13.493Z,96079.09
2022-11-29T03:40:39.876Z,96084.03
2022-11-29T03:43:06.214Z,96075.06
2022-11-29T03:45:32.538Z,96078.16
2022-11-29T03:47:58.929Z,96075.81
2022-11-29T03:50:25.270Z,96082.59
2022-11-29T03:52:51.614Z,96083.91
2022-11-29T03:55:17.998Z,96083.00
2022-11-29T03:57:44.898Z,96081.34
2022-11-29T04:00:11.291Z,96076.78
2022-11-29T04:02:37.717Z,96085.13
2022-11-29T04:05:04.116Z,96081.34
2022-11-29T04:07:30.536Z,96087.03
2022-11-29T04:09:56.890Z,96091.34
2022-11-29T04:12:23.283Z,96092.28
2022-11-29T04:14:49.638Z,96087.09
2022-11-29T04:17:15.966Z,96097.78
2022-11-29T04:19:42.311Z,96094.09
2022-11-29T04:22:08.645Z,96096.13
2022-11-29T04:24:34.978Z,96093.91
2022-11-29T04:27:01.318Z,96101.25
2022-11-29T04:29:27.681Z,96106.03
2022-11-29T04:31:54.867Z,96103.31
2022-11-29T04:34:21.195Z,96099.00
2022-11-29T04:36:47.576Z,96108.34
2022-11-29T04:39:13.967Z,96111.38
2022-11-29T04:41:40.349Z,96099.50
2022-11-29T04:44:06.702Z,96110.16
2022-11-29T04:46:33.115Z,96109.91
2022-11-29T04:48:59.506Z,96103.44
2022-11-29T04:51:25.927Z,96108.91
2022-11-29T04:53:52.310Z,96106.03
2022-11-29T04:56:18.681Z,96107.03
2022-11-29T04:58:45.028Z,96108.75
2022-11-29T05:01:11.455Z,96112.34
2022-11-29T05:03:37.863Z,96112.53
2022-11-29T05:06:04.240Z,96114.13
2022-11-29T05:08:30.619Z,96119.09
2022-11-29T05:10:56.990Z,96122.50
2022-11-29T05:13:23.330Z,96119.16
2022-11-29T05:15:49.732Z,96119.66
2022-11-29T05:18:16.135Z,96110.56
2022-11-29T05:20:42.513Z,96116.94
2022-11-29T05:23:08.888Z,96125.94
2022-11-29T05:25:35.267Z,96124.03
2022-11-29T05:28:04.483Z,96131.50
2022-11-29T05:30:34.909Z,96124.38
2022-11-29T05:33:01.246Z,96124.09
2022-11-29T05:35:27.612Z,96124.38
2022-11-29T05:37:54.007Z,96132.00
2022-11-29T05:40:20.382Z,96126.16
2022-11-29T05:42:46.760Z,96132.75
2022-11-29T05:45:13.169Z,96137.56
2022-11-29T05:47:39.520Z,96139.84
2022-11-29T05:50:05.899Z,96136.72
2022-11-29T05:52:32.302Z,96143.00
2022-11-29T05:54:58.658Z,96137.50
2022-11-29T05:57:24.980Z,96138.25
2022-11-29T05:59:51.349Z,96134.84
2022-11-29T06:02:17.773Z,96137.91
2022-11-29T06:04:44.339Z,96139.63
2022-11-29T06:07:10.901Z,96140.69
2022-11-29T06:09:37.261Z,96146.13
2022-11-29T06:12:03.629Z,96155.47
2022-11-29T06:14:29.971Z,96142.78
2022-11-29T06:16:56.298Z,96155.38
2022-11-29T06:19:22.726Z,96149.56
2022-11-29T06:21:49.081Z,96147.97
2022-11-29T06:24:15.411Z,96155.16
2022-11-29T06:26:41.751Z,96146.81
2022-11-29T06:29:08.079Z,96154.88
2022-11-29T06:31:34.516Z,96151.63
2022-11-29T06:34:00.944Z,96153.00
2022-11-29T06:36:27.286Z,96167.56
2022-11-29T06:38:53.657Z,96161.03
2022-11-29T06:41:20.061Z,96160.13
2022-11-29T06:43:46.416Z,96167.44
2022-11-29T06:46:13.026Z,96182.94
2022-11-29T06:48:39.423Z,96183.31
2022-11-29T06:51:05.760Z,96180.13
2022-11-29T06:53:32.146Z,96176.16
2022-11-29T06:55:58.501Z,96180.03
2022-11-29T06:58:24.873Z,96185.00
2022-11-29T07:00:51.239Z,96181.31
2022-11-29T07:03:17.660Z,96182.97
2022-11-29T07:05:44.037Z,96185.16
2022-11-29T07:08:10.421Z,96180.44
2022-11-29T07:10:36.812Z,96191.28
2022-11-29T07:13:03.198Z,96193.53
2022-11-29T07:15:29.578Z,96188.47
2022-11-29T07:17:55.928Z,96189.28
2022-11-29T07:20:22.335Z,96191.28
2022-11-29T07:22:48.714Z,96193.53
2022-11-29T07:25:15.094Z,96197.59
2022-11-29T07:27:41.478Z,96197.38
2022-11-29T07:30:07.884Z,96202.81
2022-11-29T07:32:34.266Z,96202.38
2022-11-29T07:35:00.631Z,96203.88
2022-11-29T07:37:27.080Z,96196.97
2022-11-29T07:39:53.586Z,96191.56
2022-11-29T07:42:19.940Z,96191.66
2022-11-29T07:44:46.494Z,96201.19
2022-11-29T07:47:16.340Z,96195.63
2022-11-29T07:49:42.727Z,96206.38
2022-11-29T07:52:09.067Z,96206.56
2022-11-29T07:54:35.834Z,96200.50
2022-11-29T07:57:02.282Z,96212.66
2022-11-29T07:59:28.623Z,96211.31
2022-11-29T08:01:55.091Z,96209.50
2022-11-29T08:04:21.469Z,96211.56
2022-11-29T08:06:47.860Z,96205.56
2022-11-29T08:09:14.234Z,96208.63
2022-11-29T08:11:40.621Z,96218.47
2022-11-29T08:14:06.974Z,96218.13
2022-11-29T08:16:33.396Z,96217.91
2022-11-29T08:18:59.818Z,96219.13
2022-11-29T08:21:26.152Z,96216.06
2022-11-29T08:23:52.492Z,96210.34
2022-11-29T08:26:18.881Z,96219.44
2022-11-29T08:28:45.217Z,96221.41
2022-11-29T08:31:11.651Z,96219.78
2022-11-29T08:33:38.018Z,96217.53
2022-11-29T08:36:04.392Z,96220.91
2022-11-29T08:38:30.773Z,96220.78
2022-11-29T08:40:57.150Z,96223.78
2022-11-29T08:43:23.496Z,96227.56
2022-11-29T08:45:49.899Z,96227.31
2022-11-29T08:48:16.323Z,96237.59
2022-11-29T08:50:42.711Z,96228.31
2022-11-29T08:53:09.107Z,96235.94
2022-11-29T08:55:35.497Z,96238.44
2022-11-29T08:58:01.880Z,96236.50
2022-11-29T09:00:28.273Z,96242.97
2022-11-29T09:02:54.619Z,96237.09
2022-11-29T09:05:20.987Z,96239.97
2022-11-29T09:07:47.387Z,96249.09
2022-11-29T09:10:13.814Z,96255.91
2022-11-29T09:12:40.203Z,96246.50
2022-11-29T09:15:06.605Z,96247.31
2022-11-29T09:17:32.993Z,96250.94
2022-11-29T09:19:59.333Z,96252.88
2022-11-29T09:22:25.663Z,96250.34
2022-11-29T09:24:52.039Z,96252.81
2022-11-29T09:27:18.416Z,96244.91
2022-11-29T09:29:44.772Z,96251.16
2022-11-29T09:32:11.148Z,96256.03
2022-11-29T09:34:37.573Z,96253.84
2022-11-29T09:37:03.972Z,96250.44
2022-11-29T09:39:30.312Z,96260.88
2022-11-29T09:41:56.646Z,96258.13
2022-11-29T09:44:22.989Z,96255.44
2022-11-29T09:46:52.258Z,96260.47
2022-11-29T09:49:22.180Z,96254.69
2022-11-29T09:51:48.542Z,96252.72
2022-11-29T09:54:14.935Z,96261.66
2022-11-29T09:56:41.330Z,96254.94
2022-11-29T09:59:07.722Z,96251.25
2022-11-29T10:01:34.106Z,96254.19
2022-11-29T10:04:00.488Z,96250.72
2022-11-29T10:06:26.868Z,96261.25
2022-11-29T10:08:53.241Z,96260.75
2022-11-29T10:11:19.611Z,96258.13
2022-11-29T10:13:45.999Z,96248.94
2022-11-29T10:16:12.428Z,96253.03
2022-11-29T10:18:38.811Z,96260.94
2022-11-29T10:21:05.205Z,96261.19
2022-11-29T10:23:31.569Z,96253.41
2022-11-29T10:25:57.958Z,96251.63
2022-11-29T10:28:24.295Z,96249.03
2022-11-29T10:30:50.710Z,96256.84
2022-11-29T10:33:17.102Z,96253.28
2022-11-29T10:35:43.443Z,96261.13
2022-11-29T10:40:56.134Z,96249.59
2022-11-29T10:43:22.556Z,96248.22
2022-11-29T10:45:50.195Z,96247.72
2022-11-29T10:48:16.741Z,96249.09
2022-11-29T10:50:43.075Z,96245.53
2022-11-29T10:53:09.451Z,96249.03
2022-11-29T10:55:35.809Z,96248.53
2022-11-29T10:58:02.183Z,96240.63
2022-11-29T11:00:28.542Z,96238.94
2022-11-29T11:02:56.006Z,96234.34
2022-11-29T11:05:22.414Z,96237.88
2022-11-29T11:07:48.799Z,96229.41
2022-11-29T11:10:15.331Z,96225.00
2022-11-29T11:12:41.760Z,96236.88
2022-11-29T11:15:08.148Z,96229.16
2022-11-29T11:17:34.531Z,96225.16
2022-11-29T11:20:00.934Z,96225.09
2022-11-29T11:22:27.395Z,96226.66
2022-11-29T11:24:53.754Z,96230.97
2022-11-29T11:27:20.130Z,96220.22
2022-11-29T11:29:46.487Z,96221.41
2022-11-29T11:32:12.879Z,96226.91
2022-11-29T11:34:39.224Z,96223.59
2022-11-29T11:37:05.555Z,96227.50
2022-11-29T11:39:31.948Z,96222.41
2022-11-29T11:41:58.385Z,96221.22
2022-11-29T11:44:58.292Z,96225.25
2022-11-29T11:47:11.123Z,96222.47
2022-11-29T11:49:37.565Z,96226.03
2022-11-29T11:52:03.960Z,96232.06
2022-11-29T11:54:30.374Z,96224.28
2022-11-29T11:56:56.728Z,96222.91
2022-11-29T11:59:23.123Z,96226.66
2022-11-29T12:01:49.515Z,96226.59
2022-11-29T12:04:15.897Z,96223.09
2022-11-29T12:06:42.286Z,96232.88
2022-11-29T12:09:08.688Z,96228.81
2022-11-29T12:11:35.040Z,96234.31
2022-11-29T12:14:01.394Z,96233.00
2022-11-29T12:16:27.716Z,96222.78
2022-11-29T12:18:54.131Z,96231.22
2022-11-29T12:21:20.475Z,96235.19
2022-11-29T12:23:46.817Z,96231.94
2022-11-29T12:26:19.295Z,96234.81
2022-11-29T12:28:59.643Z,96230.59
2022-11-29T12:31:26.067Z,96229.84
2022-11-29T12:33:52.432Z,96235.88
2022-11-29T12:36:18.837Z,96233.44
2022-11-29T12:38:45.295Z,96236.13
2022-11-29T12:41:11.686Z,96237.00
2022-11-29T12:43:38.084Z,96237.63
2022-11-29T12:46:04.530Z,96241.75
2022-11-29T12:48:30.910Z,96246.50
2022-11-29T12:50:57.286Z,96247.38
2022-11-29T12:53:27.259Z,96241.31
2022-11-29T12:55:54.115Z,96241.88
2022-11-29T12:58:20.506Z,96237.50
2022-11-29T13:00:46.882Z,96236.16
2022-11-29T13:03:13.325Z,96238.91
2022-11-29T13:05:39.755Z,96241.31
2022-11-29T13:08:06.106Z,96236.09
2022-11-29T13:10:32.470Z,96227.66
2022-11-29T13:12:58.869Z,96231.28
2022-11-29T13:15:25.222Z,96225.72
2022-11-29T13:17:51.555Z,96240.03
2022-11-29T13:20:17.889Z,96228.69
2022-11-29T13:22:44.252Z,96226.00
2022-11-29T13:25:10.606Z,96236.75
2022-11-29T13:27:36.950Z,96232.94
2022-11-29T13:30:03.281Z,96223.38
2022-11-29T13:32:29.647Z,96233.91
2022-11-29T13:34:55.993Z,96230.00
2022-11-29T13:37:22.369Z,96234.34
2022-11-29T13:39:48.723Z,96234.09
2022-11-29T13:42:15.088Z,96230.03
2022-11-29T13:44:41.500Z,96231.59
2022-11-29T13:47:07.889Z,96231.03
2022-11-29T13:49:34.266Z,96233.47
2022-11-29T13:52:00.657Z,96223.41
2022-11-29T13:54:27.048Z,96233.78
2022-11-29T13:56:53.425Z,96224.63
2022-11-29T13:59:19.835Z,96232.09
2022-11-29T14:01:46.235Z,96233.19
2022-11-29T14:04:12.589Z,96236.06
2022-11-29T14:06:38.960Z,96236.09
2022-11-29T14:09:20.655Z,96235.88
2022-11-29T14:11:47.026Z,96230.56
2022-11-29T14:14:13.402Z,96238.47
2022-11-29T14:16:39.729Z,96238.72
2022-11-29T14:19:06.097Z,96238.88
2022-11-29T14:21:32.483Z,96235.97
2022-11-29T14:23:58.848Z,96231.91
2022-11-29T14:26:28.234Z,96237.69
2022-11-29T14:28:55.039Z,96238.34
2022-11-29T14:31:21.378Z,96241.34
2022-11-29T14:33:47.785Z,96233.78
2022-11-29T14:36:14.158Z,96238.56
2022-11-29T14:38:40.517Z,96243.72
2022-11-29T14:41:06.851Z,96245.81
2022-11-29T14:43:33.226Z,96241.66
2022-11-29T14:45:59.628Z,96247.78
2022-11-29T14:48:25.977Z,96249.44
2022-11-29T14:50:52.327Z,96253.25
2022-11-29T14:53:18.698Z,96248.59
2022-11-29T14:55:45.082Z,96253.25
2022-11-29T14:58:11.461Z,96250.16
2022-11-29T15:00:37.856Z,96258.50
2022-11-29T15:03:04.232Z,96252.63
2022-11-29T15:05:30.618Z,96257.88
2022-11-29T15:07:56.994Z,96260.16
2022-11-29T15:10:23.347Z,96260.66
2022-11-29T15:12:49.717Z,96249.16
2022-11-29T15:15:16.080Z,96253.28
2022-11-29T15:17:42.418Z,96250.88
2022-11-29T15:20:08.822Z,96258.06
2022-11-29T15:22:35.207Z,96257.75
2022-11-29T15:25:01.566Z,96256.31
2022-11-29T15:27:27.897Z,96251.03
2022-11-29T15:29:54.271Z,96261.06
2022-11-29T15:32:20.620Z,96260.22
2022-11-29T15:34:47.143Z,96273.78
2022-11-29T15:37:13.680Z,96263.28
2022-11-29T15:39:40.023Z,96273.00
2022-11-29T15:42:06.355Z,96267.91
2022-11-29T15:44:32.762Z,96265.38
2022-11-29T15:46:59.139Z,96268.84
2022-11-29T15:49:25.525Z,96270.41
2022-11-29T15:51:51.866Z,96268.16
2022-11-29T15:54:18.197Z,96267.47
2022-11-29T15:56:44.594Z,96266.63
2022-11-29T15:59:10.942Z,96272.19
2022-11-29T16:01:37.292Z,96268.84
2022-11-29T16:04:03.674Z,96277.28
2022-11-29T16:06:30.033Z,96268.03
2022-11-29T16:08:56.386Z,96280.38
2022-11-29T16:11:25.091Z,96276.31
2022-11-29T16:13:51.457Z,96278.84
2022-11-29T16:16:17.881Z,96291.91
2022-11-29T16:18:44.238Z,96295.09
2022-11-29T16:21:10.597Z,96278.00
2022-11-29T16:23:36.991Z,96285.19
2022-11-29T16:26:03.379Z,96287.06
2022-11-29T16:28:29.739Z,96287.53
2022-11-29T16:30:56.114Z,96286.69
2022-11-29T16:33:22.509Z,96288.19
2022-11-29T16:35:48.912Z,96291.75
2022-11-29T16:38:15.282Z,96294.53
2022-11-29T16:40:41.658Z,96291.53
2022-11-29T16:43:08.038Z,96302.63
2022-11-29T16:45:34.520Z,96287.56
2022-11-29T16:48:00.969Z,96301.72
2022-11-29T16:50:27.351Z,96303.56
2022-11-29T16:52:56.756Z,96302.53
2022-11-29T16:55:23.583Z,96298.53
2022-11-29T16:57:50.622Z,96290.53
2022-11-29T17:00:17.052Z,96300.97
2022-11-29T17:02:43.476Z,96300.84
2022-11-29T17:05:09.922Z,96303.16
2022-11-29T17:07:36.326Z,96306.19
2022-11-29T17:10:02.736Z,96302.47
2022-11-29T17:12:29.143Z,96310.03
2022-11-29T17:14:55.482Z,96304.47
2022-11-29T17:17:21.857Z,96302.16
2022-11-29T17:19:48.185Z,96305.13
2022-11-29T17:22:14.573Z,96297.38
2022-11-29T17:24:46.182Z,96292.06
2022-11-29T17:27:14.026Z,96296.06
2022-11-29T17:29:40.359Z,96299.59
2022-11-29T17:32:06.730Z,96293.75
2022-11-29T17:34:33.107Z,96289.13
2022-11-29T17:36:59.428Z,96284.91
2022-11-29T17:39:25.802Z,96289.00
2022-11-29T17:41:52.153Z,96288.44
2022-11-29T17:44:18.490Z,96298.88
2022-11-29T17:46:44.848Z,96289.22
2022-11-29T17:49:11.188Z,96292.25
2022-11-29T17:51:53.599Z,96300.69
2022-11-29T17:54:20.336Z,96301.16
2022-11-29T17:56:46.847Z,96305.84
2022-11-29T17:59:13.184Z,96303.06
2022-11-29T18:01:39.601Z,96312.88
2022-11-29T18:04:05.999Z,96308.50
2022-11-29T18:06:32.338Z,96311.06
2022-11-29T18:08:58.675Z,96309.69
2022-11-29T18:11:25.058Z,96320.16
2022-11-29T18:13:51.451Z,96311.59
2022-11-29T18:16:17.885Z,96309.91
2022-11-29T18:18:44.285Z,96324.41
2022-11-29T18:21:10.628Z,96320.81
2022-11-29T18:23:37.029Z,96320.53
2022-11-29T18:26:03.351Z,96321.09
2022-11-29T18:28:29.687Z,96326.31
2022-11-29T18:30:56.079Z,96324.91
2022-11-29T18:33:22.419Z,96333.66
2022-11-29T18:35:48.749Z,96336.75
2022-11-29T18:38:16.324Z,96329.59
2022-11-29T18:40:42.970Z,96338.66
2022-11-29T18:43:09.317Z,96341.13
2022-11-29T18:45:35.653Z,96345.75
2022-11-29T18:48:01.987Z,96338.28
2022-11-29T18:50:28.421Z,96343.34
2022-11-29T18:52:54.797Z,96346.03
2022-11-29T18:55:21.138Z,96339.06
2022-11-29T18:57:47.515Z,96333.69
2022-11-29T19:00:13.876Z,96340.72
2022-11-29T19:02:40.345Z,96344.13
2022-11-29T19:05:06.771Z,96336.66
2022-11-29T19:07:33.207Z,96340.53
2022-11-29T19:09:59.686Z,96347.81
2022-11-29T19:12:26.068Z,96337.69
2022-11-29T19:14:52.617Z,96343.47
2022-11-29T19:17:19.220Z,96343.50
2022-11-29T19:19:45.775Z,96349.59
2022-11-29T19:22:12.267Z,96339.34
2022-11-29T19:24:38.645Z,96336.16
2022-11-29T19:27:05.012Z,96343.91
2022-11-29T19:29:35.216Z,96338.09
2022-11-29T19:32:04.767Z,96345.13
2022-11-29T19:34:31.151Z,96345.63
2022-11-29T19:36:57.516Z,96342.03
2022-11-29T19:39:23.867Z,96348.50
2022-11-29T19:41:50.232Z,96343.28
2022-11-29T19:44:16.629Z,96340.69
2022-11-29T19:46:42.971Z,96345.56
2022-11-29T19:49:09.299Z,96346.00
2022-11-29T19:51:35.855Z,96347.50
2022-11-29T19:54:02.296Z,96354.88
2022-11-29T19:56:28.631Z,96351.78
2022-11-29T19:58:54.999Z,96348.53
2022-11-29T20:01:21.440Z,96353.66
2022-11-29T20:03:47.854Z,96349.53
2022-11-29T20:06:14.383Z,96346.78
2022-11-29T20:08:40.722Z,96348.06
2022-11-29T20:11:07.053Z,96346.44
2022-11-29T20:13:33.377Z,96337.88
2022-11-29T20:15:59.726Z,96338.84
2022-11-29T20:18:26.058Z,96334.53
2022-11-29T20:20:52.520Z,96341.03
2022-11-29T20:23:18.913Z,96339.97
2022-11-29T20:25:45.260Z,96335.94
2022-11-29T20:28:11.650Z,96340.69
2022-11-29T20:30:38.025Z,96335.03
2022-11-29T20:33:04.370Z,96337.28
2022-11-29T20:35:30.756Z,96344.13
2022-11-29T20:37:57.149Z,96341.16
2022-11-29T20:40:23.482Z,96339.00
2022-11-29T20:42:49.854Z,96348.47
2022-11-29T20:45:16.242Z,96344.59
2022-11-29T20:47:42.575Z,96347.59
2022-11-29T20:50:08.905Z,96344.50
2022-11-29T20:52:35.254Z,96346.38
2022-11-29T20:55:01.585Z,96355.53
2022-11-29T20:57:27.916Z,96354.47
2022-11-29T20:59:54.284Z,96353.06
2022-11-29T21:02:20.671Z,96353.25
2022-11-29T21:04:47.223Z,96351.22
2022-11-29T21:07:13.889Z,96345.41
2022-11-29T21:09:40.227Z,96347.06
2022-11-29T21:12:06.582Z,96350.13
2022-11-29T21:14:32.920Z,96347.06
2022-11-29T21:16:59.271Z,96351.84
2022-11-29T21:19:25.641Z,96352.34
2022-11-29T21:21:51.984Z,96349.22
2022-11-29T21:24:18.368Z,96354.03
2022-11-29T21:26:44.745Z,96350.28
2022-11-29T21:29:11.158Z,96349.97
2022-11-29T21:31:37.586Z,96352.09
2022-11-29T21:34:03.983Z,96356.56
2022-11-29T21:36:30.401Z,96354.41
2022-11-29T21:38:59.730Z,96352.03
2022-11-29T21:41:28.561Z,96354.66
2022-11-29T21:44:10.238Z,96362.00
2022-11-29T21:46:36.700Z,96357.13
2022-11-29T21:49:03.174Z,96352.03
2022-11-29T21:51:29.520Z,96358.41
2022-11-29T21:53:55.952Z,96358.53
2022-11-29T21:56:22.370Z,96361.50
2022-11-29T21:58:48.813Z,96357.75
2022-11-29T22:01:15.315Z,96361.63
2022-11-29T22:03:41.973Z,96356.13
2022-11-29T22:06:08.357Z,96353.84
2022-11-29T22:08:34.749Z,96357.13
2022-11-29T22:11:01.103Z,96348.03
2022-11-29T22:13:27.438Z,96360.06
2022-11-29T22:15:53.867Z,96352.53
2022-11-29T22:18:20.288Z,96355.50
2022-11-29T22:20:46.628Z,96350.72
2022-11-29T22:23:12.963Z,96350.00
2022-11-29T22:25:39.303Z,96353.22
2022-11-29T22:28:05.652Z,96350.81
2022-11-29T22:30:32.030Z,96354.34
2022-11-29T22:32:58.370Z,96360.59
2022-11-29T22:35:24.753Z,96357.78
2022-11-29T22:37:51.128Z,96356.94
2022-11-29T22:40:17.527Z,96354.69
2022-11-29T22:42:43.915Z,96362.03
2022-11-29T22:45:10.304Z,96356.47
2022-11-29T22:47:36.694Z,96360.16
2022-11-29T22:50:03.036Z,96368.25
2022-11-29T22:52:29.512Z,96367.91
2022-11-29T22:54:59.915Z,96368.53
2022-11-29T22:57:29.355Z,96364.59
2022-11-29T22:59:55.692Z,96364.94
2022-11-29T23:02:22.121Z,96367.78
2022-11-29T23:04:48.806Z,96366.78
2022-11-29T23:07:15.357Z,96366.69
2022-11-29T23:09:41.708Z,96358.47
2022-11-29T23:12:08.031Z,96367.72
2022-11-29T23:14:34.367Z,96359.44
2022-11-29T23:17:00.734Z,96365.50
2022-11-29T23:19:27.111Z,96362.31
2022-11-29T23:21:53.447Z,96358.22
2022-11-29T23:24:19.783Z,96361.47
2022-11-29T23:26:46.149Z,96357.91
2022-11-29T23:29:12.598Z,96363.53
2022-11-29T23:31:39.029Z,96351.22
2022-11-29T23:34:05.480Z,96355.22
2022-11-29T23:36:31.935Z,96358.22
2022-11-29T23:38:58.360Z,96363.38
2022-11-29T23:41:24.743Z,96359.31
2022-11-29T23:43:51.129Z,96366.84
2022-11-29T23:46:17.567Z,96368.19
2022-11-29T23:48:44.026Z,96353.88
2022-11-29T23:51:10.413Z,96363.66
2022-11-29T23:53:36.774Z,96363.56
2022-11-29T23:56:03.102Z,96367.63
2022-11-29T23:58:29.475Z,96363.38
